.
WxDataArchive / Data Records for 2011-08-04
2011-08-03 August 2011 2011-08-05

Data Records for Thursday, 04 August 2011

Time	Temp	Chill	HIndex	Humid	Dewpt	 Wind 	HiWind	WindDir	Rain 	Barom 
-----	----	-----	------	-----	-----	------	------	-------	-----	----- 
00:00	72.3	72.3	72.3	79	65.4	0	1	315	0.00	29.801 
00:05	72.3	72.3	72.3	80	65.8	0	1	315	0.00	29.801 
00:10	72.1	72.1	72.1	81	65.9	0	1	315	0.00	29.801 
00:15	72.0	72.0	72.0	81	65.8	0	1	315	0.00	29.802 
00:20	71.8	71.8	71.8	82	66.0	0	1	315	0.00	29.802 
00:25	71.8	71.8	71.8	82	66.0	0	2	315	0.00	29.802 
00:30	71.6	71.6	71.6	83	66.2	0	1	292	0.00	29.805 
00:35	71.6	71.6	71.6	83	66.2	0	1	292	0.00	29.805 
00:40	71.5	71.5	71.5	84	66.4	0	2	292	0.00	29.805 
00:45	71.5	71.5	71.5	84	66.4	0	2	292	0.00	29.812 
00:50	71.5	71.5	71.5	84	66.4	0	3	292	0.00	29.812 
00:55	71.5	71.5	71.5	85	66.7	0	1	292	0.00	29.812 
01:00	71.5	71.5	71.5	85	66.7	0	2	292	0.00	29.815 
01:05	71.3	71.3	71.3	85	66.5	0	0	---	0.00	29.815 
01:10	71.3	71.3	71.3	86	66.9	0	0	---	0.00	29.815 
01:15	71.1	71.1	71.1	86	66.7	0	0	---	0.00	29.817 
01:20	71.1	71.1	71.1	86	66.7	0	0	---	0.00	29.817 
01:25	70.9	70.9	70.9	86	66.5	0	0	---	0.00	29.817 
01:30	70.9	70.9	70.9	87	66.8	0	1	292	0.00	29.823 
01:35	70.8	70.8	70.8	87	66.7	0	0	---	0.00	29.823 
01:40	70.8	70.8	70.8	87	66.7	0	1	292	0.00	29.823 
01:45	70.6	70.6	70.6	87	66.5	0	1	292	0.00	29.826 
01:50	70.6	70.6	70.6	87	66.5	0	1	292	0.00	29.826 
01:55	70.6	70.6	70.6	87	66.5	0	1	292	0.00	29.826 
02:00	70.6	70.6	70.6	87	66.5	0	1	292	0.00	29.825 
02:05	70.6	70.6	70.6	87	66.5	0	0	---	0.00	29.825 
02:10	70.4	70.4	70.4	87	66.3	0	0	---	0.00	29.825 
02:15	70.4	70.4	70.4	87	66.3	0	0	---	0.00	29.828 
02:20	70.3	70.3	70.3	87	66.2	0	1	292	0.00	29.828 
02:25	70.3	70.3	70.3	87	66.2	0	1	292	0.00	29.828 
02:30	70.1	70.1	70.1	87	66.0	0	0	---	0.00	29.830 
02:35	70.1	70.1	70.1	87	66.0	0	1	292	0.00	29.830 
02:40	70.1	70.1	70.1	87	66.0	0	0	---	0.00	29.830 
02:45	69.9	69.9	69.9	87	65.8	0	0	---	0.00	29.832 
02:50	69.8	69.8	69.8	86	65.4	0	0	---	0.00	29.832 
02:55	69.6	69.6	69.6	87	65.6	0	0	---	0.00	29.832 
03:00	69.4	69.4	69.4	87	65.4	0	0	---	0.00	29.832 
03:05	69.3	69.3	69.3	87	65.3	0	0	---	0.00	29.832 
03:10	69.1	69.1	69.1	88	65.4	0	0	---	0.00	29.832 
03:15	68.9	68.9	68.9	88	65.2	0	0	---	0.00	29.838 
03:20	68.9	68.9	68.9	88	65.2	0	0	---	0.00	29.838 
03:25	68.8	68.8	68.8	89	65.4	0	0	---	0.00	29.838 
03:30	68.8	68.8	68.8	89	65.4	0	0	---	0.00	29.840 
03:35	68.8	68.8	68.8	89	65.4	0	0	---	0.00	29.840 
03:40	68.6	68.6	68.6	89	65.2	0	0	---	0.00	29.840 
03:45	68.4	68.4	68.4	89	65.0	0	0	---	0.00	29.846 
03:50	68.4	68.4	68.4	90	65.3	0	0	---	0.00	29.846 
03:55	68.3	68.3	68.3	90	65.2	0	1	292	0.00	29.846 
04:00	68.1	68.1	68.1	90	65.0	0	0	---	0.00	29.841 
04:05	68.1	68.1	68.1	90	65.0	0	0	---	0.00	29.841 
04:10	67.8	67.8	67.8	90	64.8	0	0	---	0.00	29.841 
04:15	67.6	67.6	67.6	90	64.6	0	0	---	0.00	29.848 
04:20	67.6	67.6	67.6	90	64.6	0	0	---	0.00	29.848 
04:25	67.4	67.4	67.4	90	64.4	0	0	---	0.00	29.848 
04:30	67.3	67.3	67.3	90	64.3	0	0	---	0.00	29.854 
04:35	67.1	67.1	67.1	90	64.1	0	0	---	0.00	29.854 
04:40	66.9	66.9	66.9	90	63.9	0	0	---	0.00	29.854 
04:45	66.8	66.8	66.8	91	64.1	0	0	---	0.00	29.861 
04:50	66.6	66.6	66.6	91	63.9	0	0	---	0.00	29.861 
04:55	66.6	66.6	66.6	91	63.9	0	0	---	0.00	29.861 
05:00	66.4	66.4	66.4	91	63.7	0	0	---	0.00	29.866 
05:05	66.3	66.3	66.3	91	63.6	0	0	---	0.00	29.866 
05:10	66.3	66.3	66.3	91	63.6	0	0	---	0.00	29.866 
05:15	66.1	66.1	66.1	92	63.7	0	0	---	0.00	29.866 
05:20	66.0	66.0	66.0	92	63.6	0	0	---	0.00	29.866 
05:25	65.8	65.8	65.8	92	63.4	0	0	---	0.00	29.866 
05:30	65.6	65.6	65.6	92	63.2	0	0	---	0.00	29.866 
05:35	65.6	65.6	65.6	92	63.2	0	0	---	0.00	29.866 
05:40	65.5	65.5	65.5	92	63.1	0	0	---	0.00	29.866 
05:45	65.3	65.3	65.3	92	62.9	0	0	---	0.00	29.871 
05:50	65.3	65.3	65.3	92	62.9	0	0	---	0.00	29.871 
05:55	65.2	65.2	65.2	92	62.8	0	0	---	0.00	29.871 
06:00	65.0	65.0	65.0	93	62.9	0	0	---	0.00	29.881 
06:05	65.0	65.0	65.0	93	62.9	0	0	---	0.00	29.881 
06:10	65.0	65.0	65.0	93	62.9	0	0	---	0.00	29.881 
06:15	64.8	64.8	64.8	93	62.7	0	0	---	0.00	29.885 
06:20	64.8	64.8	64.8	93	62.7	0	0	---	0.00	29.885 
06:25	65.0	65.0	65.0	93	62.9	0	0	---	0.00	29.885 
06:30	65.2	65.2	65.2	94	63.4	0	0	---	0.00	29.889 
06:35	65.2	65.2	65.2	94	63.4	0	0	---	0.00	29.889 
06:40	65.2	65.2	65.2	94	63.4	0	0	---	0.00	29.889 
06:45	65.0	65.0	65.0	94	63.2	0	0	---	0.00	29.889 
06:50	65.2	65.2	65.2	94	63.4	0	0	---	0.00	29.889 
06:55	65.2	65.2	65.2	94	63.4	0	0	---	0.00	29.889 
07:00	65.2	65.2	65.2	94	63.4	0	0	---	0.00	29.892 
07:05	65.3	65.3	65.3	94	63.5	0	0	---	0.00	29.892 
07:10	65.3	65.3	65.3	94	63.5	0	0	---	0.00	29.892 
07:15	65.5	65.5	65.5	94	63.7	0	0	---	0.00	29.898 
07:20	65.5	65.5	65.5	94	63.7	0	0	---	0.00	29.898 
07:25	65.6	65.6	65.6	95	64.1	0	0	---	0.00	29.898 
07:30	66.0	66.0	66.0	95	64.5	0	0	---	0.00	29.900 
07:35	66.0	66.0	66.0	95	64.5	0	0	---	0.00	29.900 
07:40	66.3	66.3	66.3	95	64.8	0	0	---	0.00	29.900 
07:45	66.4	66.4	66.4	95	64.9	0	1	292	0.00	29.902 
07:50	66.6	66.6	66.6	95	65.1	0	0	---	0.00	29.902 
07:55	66.9	66.9	66.9	95	65.4	0	0	---	0.00	29.902 
08:00	67.1	67.1	67.1	95	65.6	0	1	292	0.00	29.913 
08:05	67.3	67.3	67.3	94	65.5	0	2	292	0.00	29.913 
08:10	67.6	67.6	67.6	94	65.8	0	1	292	0.00	29.913 
08:15	67.9	67.9	67.9	94	66.1	0	1	292	0.00	29.916 
08:20	68.1	68.1	68.1	94	66.3	0	1	292	0.00	29.916 
08:25	68.4	68.4	68.4	93	66.3	0	1	292	0.00	29.916 
08:30	69.1	69.1	69.1	93	67.0	0	3	315	0.00	29.915 
08:35	69.8	69.8	69.8	91	67.0	0	3	315	0.00	29.915 
08:40	70.4	70.4	70.4	89	67.0	0	2	45	0.00	29.915 
08:45	70.9	70.9	70.9	88	67.2	0	2	45	0.00	29.915 
08:50	71.3	71.3	71.3	86	66.9	1	4	90	0.00	29.915 
08:55	71.5	71.5	71.5	85	66.7	1	3	90	0.00	29.915 
09:00	71.3	71.3	71.3	84	66.2	0	1	90	0.00	29.916 
09:05	71.3	71.3	71.3	85	66.5	0	2	90	0.00	29.916 
09:10	70.9	70.9	70.9	85	66.2	0	1	90	0.00	29.916 
09:15	70.8	70.8	70.8	86	66.4	1	4	90	0.00	29.930 
09:20	70.6	70.6	70.6	86	66.2	0	1	90	0.00	29.930 
09:25	70.6	70.6	70.6	86	66.2	0	2	90	0.00	29.930 
09:30	70.4	70.4	70.4	86	66.0	0	3	90	0.00	29.934 
09:35	70.4	70.4	70.4	87	66.3	0	1	90	0.00	29.934 
09:40	70.1	70.1	70.1	87	66.0	0	1	90	0.00	29.934 
09:45	69.9	69.9	69.9	87	65.8	0	1	90	0.00	29.924 
09:50	70.1	70.1	70.1	87	66.0	0	1	90	0.00	29.924 
09:55	69.9	69.9	69.9	87	65.8	0	3	112	0.00	29.924 
10:00	69.9	69.9	69.9	87	65.8	1	3	112	0.00	29.930 
10:05	69.9	69.9	69.9	88	66.2	0	3	90	0.00	29.930 
10:10	70.1	70.1	70.1	88	66.4	0	3	90	0.00	29.930 
10:15	70.3	70.3	70.3	87	66.2	0	2	90	0.00	29.939 
10:20	70.3	70.3	70.3	87	66.2	1	4	90	0.00	29.939 
10:25	70.4	70.4	70.4	87	66.3	0	2	90	0.00	29.939 
10:30	70.6	70.6	70.6	86	66.2	1	4	90	0.00	29.938 
10:35	70.8	70.8	70.8	86	66.4	1	4	90	0.00	29.938 
10:40	70.8	70.8	70.8	85	66.1	1	3	90	0.00	29.938 
10:45	70.8	70.8	70.8	85	66.1	0	3	90	0.00	29.941 
10:50	70.8	70.8	70.8	85	66.1	1	4	90	0.00	29.941 
10:55	70.8	70.8	70.8	85	66.1	0	3	90	0.00	29.941 
11:00	70.8	70.8	70.8	85	66.1	0	1	90	0.00	29.944 
11:05	70.9	70.9	70.9	85	66.2	0	1	90	0.00	29.944 
11:10	71.1	71.1	71.1	85	66.4	0	3	90	0.00	29.944 
11:15	71.1	71.1	71.1	84	66.0	0	0	---	0.00	29.954 
11:20	71.3	71.3	71.3	84	66.2	0	0	---	0.00	29.954 
11:25	71.3	71.3	71.3	84	66.2	0	1	90	0.00	29.954 
11:30	71.5	71.5	71.5	84	66.4	0	3	90	0.00	29.949 
11:35	71.6	71.6	71.6	83	66.2	0	2	90	0.00	29.949 
11:40	71.6	71.6	71.6	84	66.5	0	1	90	0.00	29.949 
11:45	72.0	72.0	72.0	83	66.5	0	3	90	0.00	29.957 
11:50	72.0	72.0	72.0	83	66.5	1	3	90	0.00	29.957 
11:55	72.0	72.0	72.0	83	66.5	0	1	90	0.00	29.957 
12:00	72.1	72.1	72.1	82	66.3	0	2	90	0.00	29.964 
12:05	72.3	72.3	72.3	82	66.5	0	0	---	0.00	29.964 
12:10	72.5	72.5	72.5	82	66.7	0	0	---	0.00	29.964 
12:15	72.5	72.5	72.5	81	66.3	0	2	90	0.00	29.963 
12:20	72.7	72.7	72.7	81	66.5	0	0	---	0.00	29.963 
12:25	72.8	72.8	72.8	81	66.6	0	0	---	0.00	29.963 
12:30	73.0	73.0	73.0	81	66.8	0	0	---	0.00	29.965 
12:35	73.2	73.2	73.2	80	66.6	0	2	90	0.00	29.965 
12:40	73.2	73.2	73.2	80	66.6	0	1	90	0.00	29.965 
12:45	73.2	73.2	73.2	80	66.6	0	0	---	0.00	29.967 
12:50	73.0	73.0	73.0	80	66.5	0	1	90	0.00	29.967 
12:55	73.2	73.2	73.2	80	66.6	0	0	---	0.00	29.967 
13:00	73.2	73.2	73.2	79	66.3	0	1	90	0.00	29.971 
13:05	73.3	73.3	73.3	80	66.7	0	0	---	0.00	29.971 
13:10	73.5	73.5	73.5	80	66.9	0	0	---	0.00	29.971 
13:15	73.7	73.7	73.7	79	66.8	0	1	90	0.00	29.980 
13:20	73.7	73.7	73.7	78	66.4	0	2	90	0.00	29.980 
13:25	73.9	73.9	73.9	79	67.0	0	1	90	0.00	29.980 
13:30	74.0	74.0	74.0	78	66.7	0	2	90	0.00	29.984 
13:35	74.2	74.2	74.2	79	67.3	0	1	90	0.00	29.984 
13:40	74.4	74.4	74.4	77	66.7	0	1	90	0.00	29.984 
13:45	74.6	74.6	74.6	77	66.9	0	1	90	0.00	29.981 
13:50	74.9	74.9	74.9	77	67.2	0	1	90	0.00	29.981 
13:55	75.1	75.1	76.2	76	67.0	0	1	90	0.00	29.981 
14:00	75.3	75.3	76.5	75	66.8	0	1	90	0.00	29.989 
14:05	75.4	75.4	76.6	75	66.9	0	1	90	0.00	29.989 
14:10	76.1	76.1	77.6	73	66.8	0	2	90	0.00	29.989 
14:15	76.8	76.8	78.5	73	67.5	1	3	90	0.00	29.982 
14:20	77.6	77.6	79.5	71	67.4	1	4	90	0.00	29.982 
14:25	78.1	78.1	80.1	68	66.7	0	1	90	0.00	29.982 
14:30	78.8	78.8	80.9	67	66.9	0	2	90	0.00	29.975 
14:35	79.6	79.6	81.9	66	67.2	1	3	90	0.00	29.975 
14:40	79.9	79.9	82.1	64	66.6	1	3	90	0.00	29.975 
14:45	79.9	79.9	82.1	64	66.6	2	5	90	0.00	29.968 
14:50	79.9	79.9	82.0	63	66.2	2	4	90	0.00	29.968 
14:55	80.1	80.1	82.2	62	65.9	1	3	90	0.00	29.968 
15:00	79.9	79.9	81.8	61	65.2	2	5	90	0.00	29.960 
15:05	80.3	80.3	82.7	64	67.0	1	3	112	0.00	29.960 
15:10	80.5	80.5	82.4	60	65.3	2	5	90	0.00	29.960 
15:15	80.5	80.5	82.4	60	65.3	1	3	90	0.00	29.948 
15:20	80.9	80.9	83.1	61	66.2	0	3	90	0.00	29.948 
15:25	81.2	81.2	82.9	57	64.5	2	7	90	0.00	29.948 
15:30	81.1	81.1	83.0	59	65.4	1	7	90	0.00	29.949 
15:35	81.4	81.4	83.4	59	65.7	0	3	90	0.00	29.949 
15:40	82.2	82.2	84.3	58	65.9	2	5	90	0.00	29.949 
15:45	82.6	82.6	84.3	55	64.8	1	4	90	0.00	29.940 
15:50	82.2	82.2	84.2	57	65.4	2	5	90	0.00	29.940 
15:55	82.4	82.4	84.2	56	65.1	1	3	90	0.00	29.940 
16:00	82.6	82.6	84.3	55	64.8	1	3	90	0.00	29.930 
16:05	83.0	83.0	84.7	54	64.6	1	4	90	0.00	29.930 
16:10	83.2	83.2	85.3	56	65.8	1	4	90	0.00	29.930 
16:15	83.8	83.8	86.2	56	66.4	1	10	112	0.00	29.930 
16:20	84.0	84.0	86.0	54	65.5	2	5	90	0.00	29.930 
16:25	84.3	84.3	86.5	54	65.8	1	4	90	0.00	29.930 
16:30	83.8	83.8	85.3	52	64.3	2	5	90	0.00	29.929 
16:35	83.0	83.0	84.7	54	64.6	3	5	90	0.00	29.929 
16:40	82.8	82.8	84.4	54	64.4	1	3	90	0.00	29.929 
16:45	82.0	82.0	83.4	54	63.7	0	1	90	0.00	29.930 
16:50	81.8	81.8	83.2	54	63.5	0	3	90	0.00	29.930 
16:55	82.2	82.2	83.1	51	62.2	1	3	68	0.00	29.930 
17:00	82.8	82.8	84.6	55	65.0	1	3	68	0.00	29.930 
17:05	82.8	82.8	84.4	54	64.4	0	2	68	0.00	29.930 
17:10	82.2	82.2	83.8	55	64.4	0	2	68	0.00	29.930 
17:15	82.6	82.6	84.1	54	64.2	1	3	68	0.00	29.936 
17:20	83.0	83.0	83.9	50	62.4	1	2	68	0.00	29.936 
17:25	83.2	83.2	84.0	49	62.0	1	5	68	0.00	29.936 
17:30	83.4	83.4	84.0	48	61.6	1	3	68	0.00	29.933 
17:35	83.6	83.6	84.1	47	61.2	1	3	68	0.00	29.933 
17:40	83.8	83.8	84.7	49	62.6	0	2	68	0.00	29.933 
17:45	83.8	83.8	84.7	49	62.6	0	2	68	0.00	29.933 
17:50	83.8	83.8	84.9	50	63.1	0	1	68	0.00	29.933 
17:55	83.6	83.6	84.2	48	61.8	1	6	68	0.00	29.933 
18:00	83.4	83.4	84.8	52	63.9	1	4	112	0.00	29.931 
18:05	83.4	83.4	84.8	52	63.9	1	2	112	0.00	29.931 
18:10	83.0	83.0	84.5	53	64.1	1	3	112	0.00	29.931 
18:15	82.4	82.4	83.9	54	64.1	1	4	112	0.00	29.935 
18:20	81.6	81.6	83.1	55	63.8	0	2	112	0.00	29.935 
18:25	81.4	81.4	82.8	55	63.7	0	1	112	0.00	29.935 
18:30	81.2	81.2	82.3	53	62.4	0	4	112	0.00	29.938 
18:35	81.1	81.1	82.3	54	62.9	0	3	112	0.00	29.938 
18:40	81.2	81.2	82.5	54	62.9	0	4	112	0.00	29.938 
18:45	81.4	81.4	82.8	55	63.7	1	3	112	0.00	29.934 
18:50	81.4	81.4	82.8	55	63.7	1	3	112	0.00	29.934 
18:55	81.6	81.6	82.8	53	62.8	2	6	112	0.00	29.934 
19:00	81.4	81.4	82.1	50	60.9	2	7	90	0.00	29.933 
19:05	81.4	81.4	82.4	52	62.1	2	6	90	0.00	29.933 
19:10	81.2	81.2	82.3	53	62.4	1	6	90	0.00	29.933 
19:15	80.9	80.9	82.1	54	62.7	0	3	90	0.00	29.930 
19:20	80.7	80.7	82.2	56	63.5	0	1	90	0.00	29.930 
19:25	80.3	80.3	81.8	57	63.7	0	1	90	0.00	29.930 
19:30	80.3	80.3	81.9	58	64.2	0	1	90	0.00	29.928 
19:35	80.3	80.3	81.7	56	63.1	1	3	90	0.00	29.928 
19:40	80.3	80.3	81.7	56	63.1	1	4	90	0.00	29.928 
19:45	80.3	80.3	81.8	57	63.7	1	3	112	0.00	29.923 
19:50	80.3	80.3	81.9	58	64.2	1	3	112	0.00	29.923 
19:55	80.3	80.3	81.9	58	64.2	2	4	112	0.00	29.923 
20:00	80.3	80.3	82.1	59	64.6	0	3	112	0.00	29.925 
20:05	80.1	80.1	82.0	61	65.4	0	2	112	0.00	29.925 
20:10	79.9	79.9	81.9	62	65.7	0	1	112	0.00	29.925 
20:15	79.8	79.8	81.9	63	66.1	0	1	112	0.00	29.921 
20:20	79.4	79.4	81.4	63	65.7	0	1	112	0.00	29.921 
20:25	79.2	79.2	81.2	64	65.9	0	3	112	0.00	29.921 
20:30	79.0	79.0	81.0	64	65.8	0	2	112	0.00	29.915 
20:35	78.6	78.6	80.6	65	65.8	0	2	112	0.00	29.915 
20:40	78.5	78.5	80.5	66	66.2	0	0	---	0.00	29.915 
20:45	78.3	78.3	80.3	67	66.4	0	0	---	0.00	29.919 
20:50	77.9	77.9	79.8	67	66.0	0	0	---	0.00	29.919 
20:55	77.6	77.6	79.5	68	66.2	0	0	---	0.00	29.919 
21:00	77.4	77.4	79.2	69	66.4	0	0	---	0.00	29.917 
21:05	77.0	77.0	78.8	70	66.4	0	0	---	0.00	29.917 
21:10	76.8	76.8	78.5	71	66.7	0	0	---	0.00	29.917 
21:15	76.5	76.5	78.1	72	66.8	0	0	---	0.00	29.919 
21:20	76.1	76.1	77.7	72	66.4	0	0	---	0.00	29.919 
21:25	76.0	76.0	77.5	73	66.7	0	0	---	0.00	29.919 
21:30	75.8	75.8	77.3	73	66.5	0	0	---	0.00	29.926 
21:35	75.4	75.4	76.7	74	66.5	0	1	112	0.00	29.926 
21:40	75.3	75.3	76.5	75	66.8	0	0	---	0.00	29.926 
21:45	75.1	75.1	76.2	76	67.0	0	0	---	0.00	29.933 
21:50	74.9	74.9	74.9	76	66.8	0	0	---	0.00	29.933 
21:55	74.6	74.6	74.6	77	66.9	0	0	---	0.00	29.933 
22:00	74.6	74.6	74.6	77	66.9	0	0	---	0.00	29.938 
22:05	74.4	74.4	74.4	78	67.1	0	0	---	0.00	29.938 
22:10	74.2	74.2	74.2	78	66.9	0	0	---	0.00	29.938 
22:15	74.0	74.0	74.0	79	67.1	0	0	---	0.00	29.937 
22:20	73.9	73.9	73.9	79	67.0	0	0	---	0.00	29.937 
22:25	73.9	73.9	73.9	80	67.3	0	0	---	0.00	29.937 
22:30	73.9	73.9	73.9	81	67.7	0	2	112	0.00	29.935 
22:35	73.9	73.9	73.9	81	67.7	0	1	112	0.00	29.935 
22:40	73.9	73.9	73.9	81	67.7	0	1	112	0.00	29.935 
22:45	73.7	73.7	73.7	81	67.5	0	0	---	0.00	29.944 
22:50	73.7	73.7	73.7	81	67.5	0	0	---	0.00	29.944 
22:55	73.5	73.5	73.5	81	67.3	0	0	---	0.00	29.944 
23:00	73.3	73.3	73.3	82	67.5	0	1	112	0.00	29.949 
23:05	73.2	73.2	73.2	83	67.7	0	0	---	0.00	29.949 
23:10	73.0	73.0	73.0	84	67.9	0	4	90	0.00	29.949 
23:15	73.0	73.0	73.0	84	67.9	0	1	90	0.00	29.950 
23:20	73.0	73.0	73.0	84	67.9	0	1	90	0.00	29.950 
23:25	72.8	72.8	72.8	84	67.7	0	1	90	0.00	29.950 
23:30	72.7	72.7	72.7	85	67.9	0	1	90	0.00	29.951 
23:35	72.5	72.5	72.5	85	67.7	0	0	---	0.00	29.951 
23:40	72.3	72.3	72.3	85	67.5	0	0	---	0.00	29.951 
23:45	72.3	72.3	72.3	85	67.5	0	0	---	0.00	29.959 
23:50	72.1	72.1	72.1	86	67.7	0	0	---	0.00	29.959 
23:55	72.0	72.0	72.0	86	67.6	0	0	---	0.00	29.959 

CoCoRaHS
IN-AL-39
A2 Web Hosting
Creative Commons License
GoDaddy
search engine by freefind advanced

loaded 2018-11-20 15:34:57 • last modified 2010-11-18 10:43:29
Privacy PolicyDisclaimer
• wx.awcolley.com is powered by PmWiki v.2002016 •
• all content (unless otherwise noted) © 2018 A W Colley